EDDR 010320Z 05007KT CAVOK 01/M03 Q1030 EDDR 010250Z 05007KT CAVOK 01/M03 Q1030 EDDR 010220Z 04005KT 360V070 CAVOK M00/M03 Q1030 EDDR 010150Z 05004KT CAVOK 01/M02 Q1031 EDDR 010120Z 04007KT CAVOK 01/M02 Q1031 EDDR 010050Z 04008KT CAVOK 02/M02 Q1031 EDDR 010020Z 04008KT CAVOK 02/M02 Q1031 EDDR 282350Z 05007KT CAVOK 02/M02 Q1031 EDDR 282320Z 06007KT CAVOK 01/M02 Q1031 EDDR 282250Z 06006KT CAVOK 02/M02 Q1031 EDDR 282220Z 07007KT CAVOK 03/M02 Q1031 EDDR 282150Z 07008KT CAVOK 04/M01 Q1031 EDDR 282120Z 06011KT CAVOK 04/M01 Q1031 NOSIG EDDR 282050Z 06010KT CAVOK 04/M01 Q1031 NOSIG EDDR 282020Z 06009KT CAVOK 04/M01 Q1031 NOSIG EDDR 281950Z 06007KT CAVOK 04/M01 Q1031 NOSIG EDDR 281920Z 06008KT CAVOK 05/M01 Q1031 NOSIG EDDR 281850Z 06009KT CAVOK 05/M01 Q1031 NOSIG EDDR 281820Z 06010KT CAVOK 06/M01 Q1031 NOSIG EDDR 281750Z 05010KT 030V090 CAVOK 06/M00 Q1031 NOSIG EDDR 281720Z 04010KT CAVOK 06/M00 Q1031 NOSIG EDDR 281650Z 04010KT 010V070 CAVOK 07/M00 Q1031 NOSIG EDDR 281620Z 04008KT CAVOK 08/00 Q1031 NOSIG EDDR 281550Z 04010KT 010V070 CAVOK 09/00 Q1031 NOSIG EDDR 281520Z 04011KT 010V070 CAVOK 10/00 Q1031 NOSIG EDDR 281450Z 04011KT CAVOK 10/01 Q1031 NOSIG EDDR 281420Z 05010KT 010V080 CAVOK 11/00 Q1031 NOSIG EDDR 281350Z 05009G19KT CAVOK 10/00 Q1032 NOSIG EDDR 281320Z 06012KT 030V100 CAVOK 10/M01 Q1032 NOSIG EDDR 281250Z 06010KT 030V100 CAVOK 09/M00 Q1032 NOSIG EDDR 281220Z 06013KT 030V090 CAVOK 09/00 Q1033 NOSIG EDDR 281150Z 07013KT CAVOK 08/M00 Q1033 NOSIG EDDR 281120Z 07014KT 040V100 CAVOK 07/M00 Q1033 NOSIG EDDR 281050Z 06013KT CAVOK 07/00 Q1034 NOSIG EDDR 281020Z 08014KT 9999 FEW020 06/M00 Q1034 NOSIG EDDR 280950Z 05010KT 020V090 9999 FEW015 05/00 Q1034 NOSIG EDDR 280920Z 03011KT 9999 FEW012 04/M00 Q1034 NOSIG EDDR 280850Z 05011KT 010V070 9999 FEW012 03/M00 Q1034 NOSIG EDDR 280820Z 05009KT CAVOK 02/M01 Q1034 NOSIG EDDR 280750Z 04011KT CAVOK 01/M01 Q1034 NOSIG EDDR 280720Z 05012KT CAVOK 01/M02 Q1034 NOSIG EDDR 280650Z 05009KT CAVOK 00/M02 Q1034 NOSIG EDDR 280620Z 06009KT CAVOK 00/M02 Q1034 NOSIG EDDR 280550Z 06011KT CAVOK 00/M02 Q1034 NOSIG EDDR 280520Z 06012KT CAVOK 01/M02 Q1034 NOSIG EDDR 280450Z 05011KT CAVOK 01/M02 Q1034 NOSIG EDDR 280420Z 06009KT CAVOK 01/M02 Q1034 EDDR 280350Z 06012KT 9999 FEW020 01/M02 Q1034 EDDR 280320Z 07011KT CAVOK 01/M01 Q1034 EDDR 280250Z 06012KT CAVOK 01/M01 Q1034 EDDR 280220Z 06015KT CAVOK 01/M01 Q1034 EDDR 280150Z 05015KT CAVOK 01/M01 Q1034 EDDR 280120Z 06011KT CAVOK 01/M01 Q1035 EDDR 280050Z 05014KT CAVOK 01/M01 Q1035 EDDR 280020Z 05013KT CAVOK 01/M00 Q1035 EDDR 272350Z 05011KT CAVOK 01/M00 Q1035 EDDR 272320Z 04013KT CAVOK 02/M00 Q1035 EDDR 272250Z 04012KT CAVOK 02/M00 Q1036 EDDR 272220Z 04010KT CAVOK 02/M00 Q1036 EDDR 272150Z 04008KT CAVOK 02/M00 Q1036 EDDR 272120Z 04007KT 360V060 CAVOK 02/M00 Q1036 NOSIG EDDR 272050Z 04007KT 010V070 CAVOK 03/M00 Q1035 NOSIG EDDR 272020Z 06005KT 020V080 CAVOK 03/M01 Q1035 NOSIG EDDR 271950Z 05008KT CAVOK 03/M01 Q1035 NOSIG EDDR 271920Z 04010KT CAVOK 04/M01 Q1035 NOSIG EDDR 271850Z 06010KT CAVOK 05/M01 Q1035 NOSIG EDDR 271820Z 06009KT CAVOK 05/M01 Q1035 NOSIG EDDR 271750Z 05010KT 020V080 CAVOK 05/M01 Q1035 NOSIG EDDR 271720Z 05008KT 020V080 CAVOK 06/M01 Q1035 NOSIG EDDR 271650Z 05011KT CAVOK 07/M01 Q1035 NOSIG EDDR 271620Z 04011KT 010V070 CAVOK 08/M00 Q1035 NOSIG EDDR 271550Z 04011KT 010V080 CAVOK 08/M00 Q1035 NOSIG

METAR Messwerte

Zurück zur Übersicht

Ort
m ü. NN
Zeit Temperatur Taupunkt Rel.
Luftfeuchte
Luftdruck:
Altimeter
NN
Station
Wind in Beaufort
(Knoten)
Sichtweite
(Meter)
Wolken
(Meter über Grund)
Wettererscheinung
Saarbrücken/Ensheim
320
Mo 01.03. 04:201-375 %1030
1032
992
NO 3 (7)>= 10000Nicht signifikant 
Saarbrücken/Ensheim
320
Mo 01.03. 03:501-375 %1030
1032
992
NO 3 (7)>= 10000Nicht signifikant 
Saarbrücken/Ensheim
320
Mo 01.03. 03:20-0-380 %1030
1032
992
NO 2 (5)
N - ONO
>= 10000Nicht signifikant 
Saarbrücken/Ensheim
320
Mo 01.03. 02:501-280 %1031
1033
993
NO 2 (4)>= 10000Nicht signifikant 
Saarbrücken/Ensheim
320
Mo 01.03. 02:201-280 %1031
1033
993
NO 3 (7)>= 10000Nicht signifikant 
Saarbrücken/Ensheim
320
Mo 01.03. 01:502-275 %1031
1033
993
NO 3 (8)>= 10000Nicht signifikant 
Saarbrücken/Ensheim
320
Mo 01.03. 01:202-275 %1031
1033
993
NO 3 (8)>= 10000Nicht signifikant 
Saarbrücken/Ensheim
320
Mo 01.03. 00:502-275 %1031
1033
993
NO 3 (7)>= 10000Nicht signifikant 
Saarbrücken/Ensheim
320
Mo 01.03. 00:201-280 %1031
1033
993
ONO 3 (7)>= 10000Nicht signifikant 
Saarbrücken/Ensheim
320
So 28.02. 23:502-275 %1031
1033
993
ONO 2 (6)>= 10000Nicht signifikant 
Saarbrücken/Ensheim
320
So 28.02. 23:203-270 %1031
1033
993
ONO 3 (7)>= 10000Nicht signifikant 
Saarbrücken/Ensheim
320
So 28.02. 22:504-170 %1031
1033
993
ONO 3 (8)>= 10000Nicht signifikant 
Saarbrücken/Ensheim
320
So 28.02. 22:204-170 %1031
1033
993
ONO 4 (11)>= 10000Nicht signifikant 
Saarbrücken/Ensheim
320
So 28.02. 21:504-170 %1031
1033
993
ONO 3 (10)>= 10000Nicht signifikant 
Saarbrücken/Ensheim
320
So 28.02. 21:204-170 %1031
1033
993
ONO 3 (9)>= 10000Nicht signifikant 
Saarbrücken/Ensheim
320
So 28.02. 20:504-170 %1031
1033
993
ONO 3 (7)>= 10000Nicht signifikant 
Saarbrücken/Ensheim
320
So 28.02. 20:205-165 %1031
1033
993
ONO 3 (8)>= 10000Nicht signifikant 
Saarbrücken/Ensheim
320
So 28.02. 19:505-165 %1031
1033
993
ONO 3 (9)>= 10000Nicht signifikant 
Saarbrücken/Ensheim
320
So 28.02. 19:206-161 %1031
1032
993
ONO 3 (10)>= 10000Nicht signifikant 
Saarbrücken/Ensheim
320
So 28.02. 18:506-065 %1031
1032
993
NO 3 (10)
NNO - O
>= 10000Nicht signifikant 
Saarbrücken/Ensheim
320
So 28.02. 18:206-065 %1031
1032
993
NO 3 (10)>= 10000Nicht signifikant 
Saarbrücken/Ensheim
320
So 28.02. 17:507-061 %1031
1032
993
NO 3 (10)
N - ONO
>= 10000Nicht signifikant 
Saarbrücken/Ensheim
320
So 28.02. 17:208057 %1031
1032
993
NO 3 (8)>= 10000Nicht signifikant 
Saarbrücken/Ensheim
320
So 28.02. 16:509053 %1031
1032
993
NO 3 (10)
N - ONO
>= 10000Nicht signifikant 
Saarbrücken/Ensheim
320
So 28.02. 16:2010050 %1031
1032
993
NO 4 (11)
N - ONO
>= 10000Nicht signifikant 
Saarbrücken/Ensheim
320
So 28.02. 15:5010153 %1031
1032
993
NO 4 (11)>= 10000Nicht signifikant 
Saarbrücken/Ensheim
320
So 28.02. 15:2011047 %1031
1032
993
NO 3 (10)
N - O
>= 10000Nicht signifikant 
Saarbrücken/Ensheim
320
So 28.02. 14:5010050 %1032
1033
994
NO 3 (9) - 5 (19)>= 10000Nicht signifikant 
Saarbrücken/Ensheim
320
So 28.02. 14:2010-146 %1032
1033
994
ONO 4 (12)
NNO - O
>= 10000Nicht signifikant 
Saarbrücken/Ensheim
320
So 28.02. 13:509-053 %1032
1033
994
ONO 3 (10)
NNO - O
>= 10000Nicht signifikant 
Saarbrücken/Ensheim
320
So 28.02. 13:209053 %1033
1034
995
ONO 4 (13)
NNO - O
>= 10000Nicht signifikant 
Saarbrücken/Ensheim
320
So 28.02. 12:508-057 %1033
1034
995
ONO 4 (13)>= 10000Nicht signifikant 
Saarbrücken/Ensheim
320
So 28.02. 12:207-061 %1033
1034
995
ONO 4 (14)
NO - O
>= 10000Nicht signifikant 
Saarbrücken/Ensheim
320
So 28.02. 11:507061 %1034
1035
996
ONO 4 (13)>= 10000Nicht signifikant 
Saarbrücken/Ensheim
320
So 28.02. 11:206-065 %1034
1035
996
O 4 (14)>= 10000Leicht bewölkt (610) 
Saarbrücken/Ensheim
320
So 28.02. 10:505070 %1034
1036
996
NO 3 (10)
NNO - O
>= 10000Leicht bewölkt (460) 
Saarbrücken/Ensheim
320
So 28.02. 10:204-075 %1034
1036
996
NNO 4 (11)>= 10000Leicht bewölkt (370) 
Saarbrücken/Ensheim
320
So 28.02. 09:503-081 %1034
1036
996
NO 4 (11)
N - ONO
>= 10000Leicht bewölkt (370) 
Saarbrücken/Ensheim
320
So 28.02. 09:202-180 %1034
1036
996
NO 3 (9)>= 10000Nicht signifikant 
Saarbrücken/Ensheim
320
So 28.02. 08:501-186 %1034
1036
996
NO 4 (11)>= 10000Nicht signifikant 
Saarbrücken/Ensheim
320
So 28.02. 08:201-280 %1034
1036
996
NO 4 (12)>= 10000Nicht signifikant 
Saarbrücken/Ensheim
320
So 28.02. 07:500-286 %1034
1036
996
NO 3 (9)>= 10000Nicht signifikant 
Saarbrücken/Ensheim
320
So 28.02. 07:200-286 %1034
1036
996
ONO 3 (9)>= 10000Nicht signifikant 
Saarbrücken/Ensheim
320
So 28.02. 06:500-286 %1034
1036
996
ONO 4 (11)>= 10000Nicht signifikant 
Saarbrücken/Ensheim
320
So 28.02. 06:201-280 %1034
1036
996
ONO 4 (12)>= 10000Nicht signifikant 
Saarbrücken/Ensheim
320
So 28.02. 05:501-280 %1034
1036
996
NO 4 (11)>= 10000Nicht signifikant 
Saarbrücken/Ensheim
320
So 28.02. 05:201-280 %1034
1036
996
ONO 3 (9)>= 10000Nicht signifikant 
Saarbrücken/Ensheim
320
So 28.02. 04:501-280 %1034
1036
996
ONO 4 (12)>= 10000Leicht bewölkt (610) 
Saarbrücken/Ensheim
320
So 28.02. 04:201-186 %1034
1036
996
ONO 4 (11)>= 10000Nicht signifikant 
Saarbrücken/Ensheim
320
So 28.02. 03:501-186 %1034
1036
996
ONO 4 (12)>= 10000Nicht signifikant 
Saarbrücken/Ensheim
320
So 28.02. 03:201-186 %1034
1036
996
ONO 4 (15)>= 10000Nicht signifikant 
Saarbrücken/Ensheim
320
So 28.02. 02:501-186 %1034
1036
996
NO 4 (15)>= 10000Nicht signifikant 
Saarbrücken/Ensheim
320
So 28.02. 02:201-186 %1035
1037
996
ONO 4 (11)>= 10000Nicht signifikant 
Saarbrücken/Ensheim
320
So 28.02. 01:501-186 %1035
1037
996
NO 4 (14)>= 10000Nicht signifikant 
Saarbrücken/Ensheim
320
So 28.02. 01:201-093 %1035
1037
996
NO 4 (13)>= 10000Nicht signifikant 
Saarbrücken/Ensheim
320
So 28.02. 00:501-093 %1035
1037
996
NO 4 (11)>= 10000Nicht signifikant 
Saarbrücken/Ensheim
320
So 28.02. 00:202-087 %1035
1037
996
NO 4 (13)>= 10000Nicht signifikant 
Saarbrücken/Ensheim
320
Sa 27.02. 23:502-087 %1036
1038
997
NO 4 (12)>= 10000Nicht signifikant 
Saarbrücken/Ensheim
320
Sa 27.02. 23:202-087 %1036
1038
997
NO 3 (10)>= 10000Nicht signifikant 
Saarbrücken/Ensheim
320
Sa 27.02. 22:502-087 %1036
1038
997
NO 3 (8)>= 10000Nicht signifikant 
Saarbrücken/Ensheim
320
Sa 27.02. 22:202-087 %1036
1038
997
NO 3 (7)
N - ONO
>= 10000Nicht signifikant 
Saarbrücken/Ensheim
320
Sa 27.02. 21:503-081 %1035
1037
996
NO 3 (7)
N - ONO
>= 10000Nicht signifikant 
Saarbrücken/Ensheim
320
Sa 27.02. 21:203-175 %1035
1037
996
ONO 2 (5)
NNO - O
>= 10000Nicht signifikant 
Saarbrücken/Ensheim
320
Sa 27.02. 20:503-175 %1035
1037
996
NO 3 (8)>= 10000Nicht signifikant 
Saarbrücken/Ensheim
320
Sa 27.02. 20:204-170 %1035
1037
996
NO 3 (10)>= 10000Nicht signifikant 
Saarbrücken/Ensheim
320
Sa 27.02. 19:505-165 %1035
1037
996
ONO 3 (10)>= 10000Nicht signifikant 
Saarbrücken/Ensheim
320
Sa 27.02. 19:205-165 %1035
1037
996
ONO 3 (9)>= 10000Nicht signifikant 
Saarbrücken/Ensheim
320
Sa 27.02. 18:505-165 %1035
1037
996
NO 3 (10)
NNO - O
>= 10000Nicht signifikant 
Saarbrücken/Ensheim
320
Sa 27.02. 18:206-161 %1035
1036
996
NO 3 (8)
NNO - O
>= 10000Nicht signifikant 
Saarbrücken/Ensheim
320
Sa 27.02. 17:507-157 %1035
1036
996
NO 4 (11)>= 10000Nicht signifikant 
Saarbrücken/Ensheim
320
Sa 27.02. 17:208-057 %1035
1036
996
NO 4 (11)
N - ONO
>= 10000Nicht signifikant 
Saarbrücken/Ensheim
320
Sa 27.02. 16:508-057 %1035
1036
996
NO 4 (11)
N - O
>= 10000Nicht signifikant 

Altimeter: Einstellung am Altimeter (Höhenmesser), die Höhe 0 muss auf diesen Luftdruckwert zeigen, damit das Gerät die Stationshöhe richtig anzeigt.

NN: Luftdruck reduziert auf "Normal Null", auf Meereshöhe, dieser von der Temperatur abhängige Wert wird bisweilen unkorrekt einfach als "Luftdruck" bezeichnet. Eigentlich nur eine fiktive Größe, die es erlaubt, Stationen auf unterschiedlichen Höhen miteinander zu vergleichen.

Station: Realer Luftdruck an der Station.